sensor_id;sensor_type;location;lat;lon;timestamp;P1;durP1;ratioP1;P2;durP2;ratioP2
66607;SDS011;53462;39.616;8.824;2023-07-08T00:01:13;7.00;;;1.80;;
66607;SDS011;53462;39.616;8.824;2023-07-08T00:03:41;6.82;;;1.92;;
66607;SDS011;53462;39.616;8.824;2023-07-08T00:06:12;4.85;;;1.80;;
66607;SDS011;53462;39.616;8.824;2023-07-08T00:08:46;5.07;;;2.00;;
66607;SDS011;53462;39.616;8.824;2023-07-08T00:11:13;6.55;;;1.80;;
66607;SDS011;53462;39.616;8.824;2023-07-08T00:13:40;3.20;;;1.92;;
66607;SDS011;53462;39.616;8.824;2023-07-08T00:16:12;4.53;;;1.92;;
66607;SDS011;53462;39.616;8.824;2023-07-08T00:18:41;2.95;;;1.70;;
66607;SDS011;53462;39.616;8.824;2023-07-08T00:21:10;6.47;;;1.70;;
66607;SDS011;53462;39.616;8.824;2023-07-08T00:23:43;4.22;;;1.75;;
66607;SDS011;53462;39.616;8.824;2023-07-08T00:26:13;5.78;;;1.65;;
66607;SDS011;53462;39.616;8.824;2023-07-08T00:28:45;6.15;;;1.80;;
66607;SDS011;53462;39.616;8.824;2023-07-08T00:31:12;7.22;;;1.92;;
66607;SDS011;53462;39.616;8.824;2023-07-08T00:33:40;4.68;;;1.98;;
66607;SDS011;53462;39.616;8.824;2023-07-08T00:36:13;4.10;;;1.80;;
66607;SDS011;53462;39.616;8.824;2023-07-08T00:38:42;4.53;;;1.80;;
66607;SDS011;53462;39.616;8.824;2023-07-08T00:43:54;6.90;;;1.80;;
66607;SDS011;53462;39.616;8.824;2023-07-08T00:51:33;6.30;;;1.90;;
66607;SDS011;53462;39.616;8.824;2023-07-08T00:54:00;3.58;;;1.75;;
66607;SDS011;53462;39.616;8.824;2023-07-08T00:56:30;3.78;;;1.80;;
66607;SDS011;53462;39.616;8.824;2023-07-08T00:59:07;4.13;;;1.90;;
66607;SDS011;53462;39.616;8.824;2023-07-08T01:01:53;3.63;;;1.95;;
66607;SDS011;53462;39.616;8.824;2023-07-08T01:04:24;5.68;;;1.90;;
66607;SDS011;53462;39.616;8.824;2023-07-08T01:06:58;5.82;;;1.88;;
66607;SDS011;53462;39.616;8.824;2023-07-08T01:09:33;3.67;;;1.80;;
66607;SDS011;53462;39.616;8.824;2023-07-08T01:12:05;5.95;;;1.80;;
66607;SDS011;53462;39.616;8.824;2023-07-08T01:14:34;4.35;;;1.70;;
66607;SDS011;53462;39.616;8.824;2023-07-08T01:17:02;4.43;;;1.80;;
66607;SDS011;53462;39.616;8.824;2023-07-08T01:19:28;5.75;;;1.92;;
66607;SDS011;53462;39.616;8.824;2023-07-08T01:21:59;5.88;;;1.77;;
66607;SDS011;53462;39.616;8.824;2023-07-08T01:24:27;4.38;;;1.90;;
66607;SDS011;53462;39.616;8.824;2023-07-08T01:26:57;6.03;;;1.65;;
66607;SDS011;53462;39.616;8.824;2023-07-08T01:29:23;6.55;;;1.70;;
66607;SDS011;53462;39.616;8.824;2023-07-08T01:31:49;6.53;;;1.95;;
66607;SDS011;53462;39.616;8.824;2023-07-08T01:34:16;4.70;;;1.50;;
66607;SDS011;53462;39.616;8.824;2023-07-08T01:36:50;5.45;;;1.98;;
66607;SDS011;53462;39.616;8.824;2023-07-08T01:39:19;5.75;;;1.90;;
66607;SDS011;53462;39.616;8.824;2023-07-08T01:41:47;5.03;;;1.65;;
66607;SDS011;53462;39.616;8.824;2023-07-08T01:44:35;5.85;;;2.00;;
66607;SDS011;53462;39.616;8.824;2023-07-08T01:47:10;8.75;;;1.83;;
66607;SDS011;53462;39.616;8.824;2023-07-08T01:49:42;6.65;;;2.10;;
66607;SDS011;53462;39.616;8.824;2023-07-08T01:52:10;5.88;;;1.92;;
66607;SDS011;53462;39.616;8.824;2023-07-08T01:54:37;4.82;;;2.13;;
66607;SDS011;53462;39.616;8.824;2023-07-08T01:57:04;6.65;;;2.00;;
66607;SDS011;53462;39.616;8.824;2023-07-08T01:59:30;4.75;;;2.10;;
66607;SDS011;53462;39.616;8.824;2023-07-08T02:01:56;6.97;;;1.90;;
66607;SDS011;53462;39.616;8.824;2023-07-08T02:04:22;5.55;;;1.92;;
66607;SDS011;53462;39.616;8.824;2023-07-08T02:06:53;11.43;;;2.08;;
66607;SDS011;53462;39.616;8.824;2023-07-08T02:09:21;7.03;;;2.13;;
66607;SDS011;53462;39.616;8.824;2023-07-08T02:11:47;9.55;;;2.33;;
66607;SDS011;53462;39.616;8.824;2023-07-08T02:14:13;7.35;;;2.38;;
66607;SDS011;53462;39.616;8.824;2023-07-08T02:16:39;9.35;;;2.30;;
66607;SDS011;53462;39.616;8.824;2023-07-08T02:19:05;10.05;;;2.30;;
66607;SDS011;53462;39.616;8.824;2023-07-08T02:21:31;6.95;;;1.80;;
66607;SDS011;53462;39.616;8.824;2023-07-08T02:23:57;10.10;;;2.22;;
66607;SDS011;53462;39.616;8.824;2023-07-08T02:26:23;7.55;;;2.38;;
66607;SDS011;53462;39.616;8.824;2023-07-08T02:28:49;6.97;;;1.90;;
66607;SDS011;53462;39.616;8.824;2023-07-08T02:31:15;13.45;;;2.10;;
66607;SDS011;53462;39.616;8.824;2023-07-08T02:33:41;8.00;;;2.55;;
66607;SDS011;53462;39.616;8.824;2023-07-08T02:36:08;7.60;;;2.20;;
66607;SDS011;53462;39.616;8.824;2023-07-08T02:38:34;6.70;;;1.90;;
66607;SDS011;53462;39.616;8.824;2023-07-08T02:41:00;6.13;;;1.83;;
66607;SDS011;53462;39.616;8.824;2023-07-08T02:43:26;10.30;;;2.20;;
66607;SDS011;53462;39.616;8.824;2023-07-08T02:45:52;10.60;;;2.47;;
66607;SDS011;53462;39.616;8.824;2023-07-08T02:48:18;6.40;;;2.28;;
66607;SDS011;53462;39.616;8.824;2023-07-08T02:50:45;8.23;;;2.05;;
66607;SDS011;53462;39.616;8.824;2023-07-08T02:53:11;12.20;;;2.28;;
66607;SDS011;53462;39.616;8.824;2023-07-08T02:55:38;7.57;;;2.45;;
66607;SDS011;53462;39.616;8.824;2023-07-08T02:58:05;12.88;;;2.05;;
66607;SDS011;53462;39.616;8.824;2023-07-08T03:00:31;6.13;;;1.92;;
66607;SDS011;53462;39.616;8.824;2023-07-08T03:02:57;7.00;;;1.98;;
66607;SDS011;53462;39.616;8.824;2023-07-08T03:05:23;10.50;;;2.30;;
66607;SDS011;53462;39.616;8.824;2023-07-08T03:07:49;8.45;;;2.10;;
66607;SDS011;53462;39.616;8.824;2023-07-08T03:10:15;10.60;;;2.05;;
66607;SDS011;53462;39.616;8.824;2023-07-08T03:12:42;6.28;;;1.80;;
66607;SDS011;53462;39.616;8.824;2023-07-08T03:15:08;8.93;;;2.10;;
66607;SDS011;53462;39.616;8.824;2023-07-08T03:17:35;7.47;;;2.38;;
66607;SDS011;53462;39.616;8.824;2023-07-08T03:20:01;4.72;;;2.10;;
66607;SDS011;53462;39.616;8.824;2023-07-08T03:22:27;7.10;;;1.95;;
66607;SDS011;53462;39.616;8.824;2023-07-08T03:24:53;7.32;;;2.20;;
66607;SDS011;53462;39.616;8.824;2023-07-08T03:27:20;10.45;;;2.28;;
66607;SDS011;53462;39.616;8.824;2023-07-08T03:29:48;8.02;;;1.95;;
66607;SDS011;53462;39.616;8.824;2023-07-08T03:32:15;8.82;;;2.33;;
66607;SDS011;53462;39.616;8.824;2023-07-08T03:34:40;10.93;;;2.40;;
66607;SDS011;53462;39.616;8.824;2023-07-08T03:37:08;8.40;;;2.10;;
66607;SDS011;53462;39.616;8.824;2023-07-08T03:39:35;8.93;;;2.20;;
66607;SDS011;53462;39.616;8.824;2023-07-08T03:42:01;9.80;;;2.30;;
66607;SDS011;53462;39.616;8.824;2023-07-08T03:44:28;7.05;;;1.80;;
66607;SDS011;53462;39.616;8.824;2023-07-08T03:46:55;12.27;;;2.53;;
66607;SDS011;53462;39.616;8.824;2023-07-08T03:49:22;12.00;;;2.15;;
66607;SDS011;53462;39.616;8.824;2023-07-08T03:51:51;9.65;;;1.95;;
66607;SDS011;53462;39.616;8.824;2023-07-08T03:54:21;11.07;;;1.90;;
66607;SDS011;53462;39.616;8.824;2023-07-08T03:56:50;7.38;;;2.13;;
66607;SDS011;53462;39.616;8.824;2023-07-08T03:59:17;5.55;;;2.13;;
66607;SDS011;53462;39.616;8.824;2023-07-08T04:01:44;8.00;;;2.20;;
66607;SDS011;53462;39.616;8.824;2023-07-08T04:04:12;10.43;;;2.58;;
66607;SDS011;53462;39.616;8.824;2023-07-08T04:06:41;11.25;;;2.33;;
66607;SDS011;53462;39.616;8.824;2023-07-08T04:09:08;7.90;;;2.20;;
66607;SDS011;53462;39.616;8.824;2023-07-08T04:11:34;8.57;;;2.05;;
66607;SDS011;53462;39.616;8.824;2023-07-08T04:14:00;13.27;;;2.38;;
66607;SDS011;53462;39.616;8.824;2023-07-08T04:16:29;11.30;;;2.20;;
66607;SDS011;53462;39.616;8.824;2023-07-08T04:19:11;10.18;;;2.17;;
66607;SDS011;53462;39.616;8.824;2023-07-08T04:21:40;5.80;;;2.20;;
66607;SDS011;53462;39.616;8.824;2023-07-08T04:24:11;6.85;;;2.10;;
66607;SDS011;53462;39.616;8.824;2023-07-08T04:26:38;11.35;;;2.63;;
66607;SDS011;53462;39.616;8.824;2023-07-08T04:29:07;7.53;;;2.13;;
66607;SDS011;53462;39.616;8.824;2023-07-08T04:31:39;8.80;;;2.58;;
66607;SDS011;53462;39.616;8.824;2023-07-08T04:34:05;10.23;;;3.45;;
66607;SDS011;53462;39.616;8.824;2023-07-08T04:36:31;13.40;;;2.15;;
66607;SDS011;53462;39.616;8.824;2023-07-08T04:38:58;8.48;;;2.30;;
66607;SDS011;53462;39.616;8.824;2023-07-08T04:41:25;10.40;;;2.20;;
66607;SDS011;53462;39.616;8.824;2023-07-08T04:43:52;11.18;;;2.35;;
66607;SDS011;53462;39.616;8.824;2023-07-08T04:46:27;10.80;;;2.10;;
66607;SDS011;53462;39.616;8.824;2023-07-08T04:49:03;8.43;;;1.95;;
66607;SDS011;53462;39.616;8.824;2023-07-08T04:51:35;7.93;;;2.00;;
66607;SDS011;53462;39.616;8.824;2023-07-08T04:54:01;13.15;;;2.35;;
66607;SDS011;53462;39.616;8.824;2023-07-08T04:56:41;12.18;;;1.98;;
66607;SDS011;53462;39.616;8.824;2023-07-08T04:59:09;11.00;;;2.40;;
66607;SDS011;53462;39.616;8.824;2023-07-08T05:01:36;12.90;;;2.65;;
66607;SDS011;53462;39.616;8.824;2023-07-08T05:04:02;8.85;;;2.08;;
66607;SDS011;53462;39.616;8.824;2023-07-08T05:06:30;8.07;;;2.22;;
66607;SDS011;53462;39.616;8.824;2023-07-08T05:08:57;9.13;;;1.90;;
66607;SDS011;53462;39.616;8.824;2023-07-08T05:11:24;8.15;;;2.13;;
66607;SDS011;53462;39.616;8.824;2023-07-08T05:13:50;8.43;;;2.30;;
66607;SDS011;53462;39.616;8.824;2023-07-08T05:16:16;12.35;;;2.17;;
66607;SDS011;53462;39.616;8.824;2023-07-08T05:18:42;8.90;;;2.03;;
66607;SDS011;53462;39.616;8.824;2023-07-08T05:21:09;10.23;;;2.30;;
66607;SDS011;53462;39.616;8.824;2023-07-08T05:23:36;10.98;;;2.50;;
66607;SDS011;53462;39.616;8.824;2023-07-08T05:26:03;9.45;;;2.40;;
66607;SDS011;53462;39.616;8.824;2023-07-08T05:28:30;11.25;;;2.08;;
66607;SDS011;53462;39.616;8.824;2023-07-08T05:30:56;7.22;;;2.20;;
66607;SDS011;53462;39.616;8.824;2023-07-08T05:33:23;9.82;;;2.20;;
66607;SDS011;53462;39.616;8.824;2023-07-08T05:35:51;11.57;;;2.15;;
66607;SDS011;53462;39.616;8.824;2023-07-08T05:38:17;11.10;;;2.40;;
66607;SDS011;53462;39.616;8.824;2023-07-08T05:40:46;11.77;;;2.30;;
66607;SDS011;53462;39.616;8.824;2023-07-08T05:43:15;11.25;;;2.20;;
66607;SDS011;53462;39.616;8.824;2023-07-08T05:45:41;11.88;;;2.50;;
66607;SDS011;53462;39.616;8.824;2023-07-08T05:48:08;8.57;;;2.15;;
66607;SDS011;53462;39.616;8.824;2023-07-08T05:50:33;19.60;;;3.08;;
66607;SDS011;53462;39.616;8.824;2023-07-08T05:52:59;11.38;;;2.60;;
66607;SDS011;53462;39.616;8.824;2023-07-08T05:55:25;15.88;;;2.40;;
66607;SDS011;53462;39.616;8.824;2023-07-08T05:57:51;17.38;;;2.92;;
66607;SDS011;53462;39.616;8.824;2023-07-08T06:00:17;12.55;;;2.30;;
66607;SDS011;53462;39.616;8.824;2023-07-08T06:02:43;17.33;;;2.70;;
66607;SDS011;53462;39.616;8.824;2023-07-08T06:05:09;11.13;;;2.28;;
66607;SDS011;53462;39.616;8.824;2023-07-08T06:07:35;15.45;;;2.65;;
66607;SDS011;53462;39.616;8.824;2023-07-08T06:10:01;12.13;;;2.60;;
66607;SDS011;53462;39.616;8.824;2023-07-08T06:12:29;14.25;;;3.05;;
66607;SDS011;53462;39.616;8.824;2023-07-08T06:14:56;15.30;;;2.80;;
66607;SDS011;53462;39.616;8.824;2023-07-08T06:17:23;11.57;;;2.40;;
66607;SDS011;53462;39.616;8.824;2023-07-08T06:19:49;14.00;;;2.40;;
66607;SDS011;53462;39.616;8.824;2023-07-08T06:22:15;11.00;;;2.38;;
66607;SDS011;53462;39.616;8.824;2023-07-08T06:24:41;17.27;;;2.85;;
66607;SDS011;53462;39.616;8.824;2023-07-08T06:27:07;17.13;;;2.33;;
66607;SDS011;53462;39.616;8.824;2023-07-08T06:29:33;13.35;;;2.67;;
66607;SDS011;53462;39.616;8.824;2023-07-08T06:32:00;13.32;;;2.70;;
66607;SDS011;53462;39.616;8.824;2023-07-08T06:34:27;9.70;;;2.67;;
66607;SDS011;53462;39.616;8.824;2023-07-08T06:36:53;13.70;;;2.58;;
66607;SDS011;53462;39.616;8.824;2023-07-08T06:39:19;13.15;;;2.33;;
66607;SDS011;53462;39.616;8.824;2023-07-08T06:41:45;13.93;;;2.28;;
66607;SDS011;53462;39.616;8.824;2023-07-08T06:44:11;9.82;;;1.98;;
66607;SDS011;53462;39.616;8.824;2023-07-08T06:46:37;12.77;;;2.40;;
66607;SDS011;53462;39.616;8.824;2023-07-08T06:49:03;14.48;;;2.40;;
66607;SDS011;53462;39.616;8.824;2023-07-08T06:51:34;10.65;;;2.55;;
66607;SDS011;53462;39.616;8.824;2023-07-08T06:54:00;14.65;;;2.40;;
66607;SDS011;53462;39.616;8.824;2023-07-08T06:56:30;11.18;;;2.45;;
66607;SDS011;53462;39.616;8.824;2023-07-08T06:58:56;11.80;;;2.45;;
66607;SDS011;53462;39.616;8.824;2023-07-08T07:01:25;8.73;;;2.13;;
66607;SDS011;53462;39.616;8.824;2023-07-08T07:03:51;11.82;;;2.30;;
66607;SDS011;53462;39.616;8.824;2023-07-08T07:06:17;11.05;;;2.47;;
66607;SDS011;53462;39.616;8.824;2023-07-08T07:08:43;17.10;;;2.58;;
66607;SDS011;53462;39.616;8.824;2023-07-08T07:11:09;12.32;;;2.10;;
66607;SDS011;53462;39.616;8.824;2023-07-08T07:13:35;13.98;;;2.58;;
66607;SDS011;53462;39.616;8.824;2023-07-08T07:16:00;13.05;;;2.60;;
66607;SDS011;53462;39.616;8.824;2023-07-08T07:18:26;12.40;;;3.00;;
66607;SDS011;53462;39.616;8.824;2023-07-08T07:20:53;11.30;;;2.22;;
66607;SDS011;53462;39.616;8.824;2023-07-08T07:23:19;20.35;;;2.65;;
66607;SDS011;53462;39.616;8.824;2023-07-08T07:25:46;11.23;;;2.42;;
66607;SDS011;53462;39.616;8.824;2023-07-08T07:28:13;17.42;;;2.58;;
66607;SDS011;53462;39.616;8.824;2023-07-08T07:30:42;11.65;;;2.33;;
66607;SDS011;53462;39.616;8.824;2023-07-08T07:33:09;15.80;;;2.50;;
66607;SDS011;53462;39.616;8.824;2023-07-08T07:35:35;11.20;;;2.28;;
66607;SDS011;53462;39.616;8.824;2023-07-08T07:38:01;10.50;;;2.20;;
66607;SDS011;53462;39.616;8.824;2023-07-08T07:40:27;12.05;;;2.33;;
66607;SDS011;53462;39.616;8.824;2023-07-08T07:42:53;8.52;;;2.10;;
66607;SDS011;53462;39.616;8.824;2023-07-08T07:45:18;10.27;;;2.70;;
66607;SDS011;53462;39.616;8.824;2023-07-08T07:47:47;8.68;;;2.08;;
66607;SDS011;53462;39.616;8.824;2023-07-08T07:50:13;8.38;;;2.17;;
66607;SDS011;53462;39.616;8.824;2023-07-08T07:52:40;11.13;;;2.35;;
66607;SDS011;53462;39.616;8.824;2023-07-08T07:55:06;14.23;;;2.35;;
66607;SDS011;53462;39.616;8.824;2023-07-08T07:57:33;7.72;;;2.25;;
66607;SDS011;53462;39.616;8.824;2023-07-08T07:59:59;9.50;;;2.40;;
66607;SDS011;53462;39.616;8.824;2023-07-08T08:02:25;7.03;;;2.03;;
66607;SDS011;53462;39.616;8.824;2023-07-08T08:04:51;10.95;;;2.50;;
66607;SDS011;53462;39.616;8.824;2023-07-08T08:07:17;15.25;;;2.15;;
66607;SDS011;53462;39.616;8.824;2023-07-08T08:09:43;18.02;;;2.63;;
66607;SDS011;53462;39.616;8.824;2023-07-08T08:12:09;8.15;;;2.10;;
66607;SDS011;53462;39.616;8.824;2023-07-08T08:14:36;12.43;;;2.30;;
66607;SDS011;53462;39.616;8.824;2023-07-08T08:17:03;11.70;;;2.42;;
66607;SDS011;53462;39.616;8.824;2023-07-08T08:19:29;11.88;;;2.38;;
66607;SDS011;53462;39.616;8.824;2023-07-08T08:21:56;10.65;;;2.50;;
66607;SDS011;53462;39.616;8.824;2023-07-08T08:24:22;15.20;;;2.47;;
66607;SDS011;53462;39.616;8.824;2023-07-08T08:26:48;16.85;;;2.60;;
66607;SDS011;53462;39.616;8.824;2023-07-08T08:29:14;11.52;;;2.53;;
66607;SDS011;53462;39.616;8.824;2023-07-08T08:31:40;12.80;;;2.50;;
66607;SDS011;53462;39.616;8.824;2023-07-08T08:34:06;8.52;;;2.50;;
66607;SDS011;53462;39.616;8.824;2023-07-08T08:36:32;16.30;;;2.80;;
66607;SDS011;53462;39.616;8.824;2023-07-08T08:38:58;19.48;;;2.90;;
66607;SDS011;53462;39.616;8.824;2023-07-08T08:41:29;16.17;;;2.60;;
66607;SDS011;53462;39.616;8.824;2023-07-08T08:43:57;13.52;;;2.97;;
66607;SDS011;53462;39.616;8.824;2023-07-08T08:52:01;17.13;;;3.17;;
66607;SDS011;53462;39.616;8.824;2023-07-08T08:54:27;24.20;;;2.92;;
66607;SDS011;53462;39.616;8.824;2023-07-08T08:59:46;17.58;;;2.70;;
66607;SDS011;53462;39.616;8.824;2023-07-08T09:02:25;16.65;;;2.80;;
66607;SDS011;53462;39.616;8.824;2023-07-08T09:05:07;13.35;;;2.70;;
66607;SDS011;53462;39.616;8.824;2023-07-08T09:10:15;16.40;;;2.83;;
66607;SDS011;53462;39.616;8.824;2023-07-08T09:12:57;14.63;;;3.40;;
66607;SDS011;53462;39.616;8.824;2023-07-08T09:15:28;19.08;;;3.20;;
66607;SDS011;53462;39.616;8.824;2023-07-08T09:17:54;21.33;;;2.83;;
66607;SDS011;53462;39.616;8.824;2023-07-08T09:20:28;17.17;;;2.80;;
66607;SDS011;53462;39.616;8.824;2023-07-08T09:25:49;20.50;;;3.25;;
66607;SDS011;53462;39.616;8.824;2023-07-08T09:28:39;17.83;;;3.47;;
66607;SDS011;53462;39.616;8.824;2023-07-08T09:31:07;14.47;;;3.17;;
66607;SDS011;53462;39.616;8.824;2023-07-08T09:33:46;16.55;;;3.10;;
66607;SDS011;53462;39.616;8.824;2023-07-08T09:36:19;13.35;;;2.90;;
66607;SDS011;53462;39.616;8.824;2023-07-08T09:38:48;11.80;;;2.70;;
66607;SDS011;53462;39.616;8.824;2023-07-08T09:41:18;16.95;;;3.22;;
66607;SDS011;53462;39.616;8.824;2023-07-08T09:44:22;18.58;;;3.08;;
66607;SDS011;53462;39.616;8.824;2023-07-08T09:46:48;19.75;;;3.50;;
66607;SDS011;53462;39.616;8.824;2023-07-08T09:49:19;19.85;;;3.28;;
66607;SDS011;53462;39.616;8.824;2023-07-08T09:51:45;16.05;;;3.22;;
66607;SDS011;53462;39.616;8.824;2023-07-08T09:54:12;15.20;;;3.05;;
66607;SDS011;53462;39.616;8.824;2023-07-08T09:56:40;18.00;;;3.33;;
66607;SDS011;53462;39.616;8.824;2023-07-08T09:59:13;18.53;;;3.60;;
66607;SDS011;53462;39.616;8.824;2023-07-08T10:01:40;17.35;;;3.08;;
66607;SDS011;53462;39.616;8.824;2023-07-08T10:04:07;16.10;;;3.05;;
66607;SDS011;53462;39.616;8.824;2023-07-08T10:06:34;19.10;;;3.60;;
66607;SDS011;53462;39.616;8.824;2023-07-08T10:09:02;17.80;;;2.85;;
66607;SDS011;53462;39.616;8.824;2023-07-08T10:11:31;27.63;;;3.80;;
66607;SDS011;53462;39.616;8.824;2023-07-08T10:14:09;20.75;;;3.40;;
66607;SDS011;53462;39.616;8.824;2023-07-08T10:16:42;16.88;;;3.30;;
66607;SDS011;53462;39.616;8.824;2023-07-08T10:19:15;23.60;;;3.85;;
66607;SDS011;53462;39.616;8.824;2023-07-08T10:45:49;14.70;;;3.10;;
66607;SDS011;53462;39.616;8.824;2023-07-08T11:02:02;16.63;;;3.42;;
66607;SDS011;53462;39.616;8.824;2023-07-08T11:07:19;20.35;;;3.03;;
66607;SDS011;53462;39.616;8.824;2023-07-08T11:09:56;23.30;;;3.28;;
66607;SDS011;53462;39.616;8.824;2023-07-08T11:12:31;16.15;;;3.15;;
66607;SDS011;53462;39.616;8.824;2023-07-08T11:15:11;31.50;;;3.72;;
66607;SDS011;53462;39.616;8.824;2023-07-08T11:17:49;22.70;;;3.20;;
66607;SDS011;53462;39.616;8.824;2023-07-08T11:20:17;18.15;;;3.15;;
66607;SDS011;53462;39.616;8.824;2023-07-08T11:22:53;22.02;;;3.63;;
66607;SDS011;53462;39.616;8.824;2023-07-08T11:25:24;22.05;;;4.10;;
66607;SDS011;53462;39.616;8.824;2023-07-08T11:27:54;23.45;;;4.03;;
66607;SDS011;53462;39.616;8.824;2023-07-08T11:30:23;24.60;;;3.63;;
66607;SDS011;53462;39.616;8.824;2023-07-08T11:32:54;26.77;;;4.45;;
66607;SDS011;53462;39.616;8.824;2023-07-08T11:35:39;25.73;;;4.38;;
66607;SDS011;53462;39.616;8.824;2023-07-08T11:38:12;25.38;;;4.65;;
66607;SDS011;53462;39.616;8.824;2023-07-08T11:43:22;23.52;;;4.00;;
66607;SDS011;53462;39.616;8.824;2023-07-08T11:45:53;24.55;;;4.03;;
66607;SDS011;53462;39.616;8.824;2023-07-08T11:48:25;22.02;;;4.13;;
66607;SDS011;53462;39.616;8.824;2023-07-08T11:50:54;21.88;;;3.85;;
66607;SDS011;53462;39.616;8.824;2023-07-08T11:58:23;19.70;;;4.53;;
66607;SDS011;53462;39.616;8.824;2023-07-08T12:01:04;27.45;;;4.10;;
66607;SDS011;53462;39.616;8.824;2023-07-08T12:03:53;18.85;;;3.72;;
66607;SDS011;53462;39.616;8.824;2023-07-08T12:09:14;17.45;;;3.97;;
66607;SDS011;53462;39.616;8.824;2023-07-08T12:11:45;21.65;;;3.55;;
66607;SDS011;53462;39.616;8.824;2023-07-08T12:14:13;21.25;;;4.32;;
66607;SDS011;53462;39.616;8.824;2023-07-08T12:16:40;25.83;;;4.88;;
66607;SDS011;53462;39.616;8.824;2023-07-08T12:19:09;23.02;;;4.50;;
66607;SDS011;53462;39.616;8.824;2023-07-08T12:21:41;29.65;;;5.63;;
66607;SDS011;53462;39.616;8.824;2023-07-08T12:24:09;14.77;;;3.50;;
66607;SDS011;53462;39.616;8.824;2023-07-08T12:26:37;20.52;;;3.78;;
66607;SDS011;53462;39.616;8.824;2023-07-08T12:29:04;25.65;;;4.00;;
66607;SDS011;53462;39.616;8.824;2023-07-08T12:31:31;22.45;;;4.00;;
66607;SDS011;53462;39.616;8.824;2023-07-08T12:33:57;20.95;;;3.83;;
66607;SDS011;53462;39.616;8.824;2023-07-08T12:36:25;20.80;;;3.72;;
66607;SDS011;53462;39.616;8.824;2023-07-08T12:38:56;20.27;;;3.28;;
66607;SDS011;53462;39.616;8.824;2023-07-08T12:41:25;21.17;;;3.83;;
66607;SDS011;53462;39.616;8.824;2023-07-08T12:44:22;19.33;;;3.17;;
66607;SDS011;53462;39.616;8.824;2023-07-08T12:46:52;18.63;;;3.55;;
66607;SDS011;53462;39.616;8.824;2023-07-08T12:49:19;20.02;;;3.22;;
66607;SDS011;53462;39.616;8.824;2023-07-08T12:51:47;19.98;;;3.30;;
66607;SDS011;53462;39.616;8.824;2023-07-08T12:54:13;22.13;;;4.57;;
66607;SDS011;53462;39.616;8.824;2023-07-08T12:56:40;29.67;;;3.65;;
66607;SDS011;53462;39.616;8.824;2023-07-08T12:59:11;19.23;;;3.35;;
66607;SDS011;53462;39.616;8.824;2023-07-08T13:01:47;16.83;;;3.05;;
66607;SDS011;53462;39.616;8.824;2023-07-08T13:04:14;19.83;;;3.42;;
66607;SDS011;53462;39.616;8.824;2023-07-08T13:06:41;26.33;;;3.42;;
66607;SDS011;53462;39.616;8.824;2023-07-08T13:09:18;20.13;;;3.35;;
66607;SDS011;53462;39.616;8.824;2023-07-08T13:12:03;22.08;;;3.75;;
66607;SDS011;53462;39.616;8.824;2023-07-08T13:14:57;23.40;;;3.72;;
66607;SDS011;53462;39.616;8.824;2023-07-08T13:17:25;20.65;;;3.70;;
66607;SDS011;53462;39.616;8.824;2023-07-08T13:19:51;22.10;;;3.47;;
66607;SDS011;53462;39.616;8.824;2023-07-08T13:22:18;26.23;;;3.63;;
66607;SDS011;53462;39.616;8.824;2023-07-08T13:24:46;23.73;;;3.53;;
66607;SDS011;53462;39.616;8.824;2023-07-08T13:27:16;19.13;;;3.40;;
66607;SDS011;53462;39.616;8.824;2023-07-08T13:29:47;28.80;;;3.95;;
66607;SDS011;53462;39.616;8.824;2023-07-08T13:32:15;20.75;;;3.60;;
66607;SDS011;53462;39.616;8.824;2023-07-08T13:34:41;20.90;;;3.40;;
66607;SDS011;53462;39.616;8.824;2023-07-08T13:37:11;19.92;;;3.55;;
66607;SDS011;53462;39.616;8.824;2023-07-08T13:39:44;21.23;;;3.58;;
66607;SDS011;53462;39.616;8.824;2023-07-08T13:42:11;18.63;;;3.67;;
66607;SDS011;53462;39.616;8.824;2023-07-08T13:44:44;16.00;;;3.22;;
66607;SDS011;53462;39.616;8.824;2023-07-08T13:47:23;22.00;;;4.07;;
66607;SDS011;53462;39.616;8.824;2023-07-08T13:52:23;25.13;;;3.97;;
66607;SDS011;53462;39.616;8.824;2023-07-08T13:54:53;15.48;;;3.80;;
66607;SDS011;53462;39.616;8.824;2023-07-08T13:57:32;20.20;;;3.72;;
66607;SDS011;53462;39.616;8.824;2023-07-08T14:00:02;19.63;;;3.53;;
66607;SDS011;53462;39.616;8.824;2023-07-08T14:02:37;18.58;;;3.72;;
66607;SDS011;53462;39.616;8.824;2023-07-08T14:05:09;17.48;;;3.30;;
66607;SDS011;53462;39.616;8.824;2023-07-08T14:07:37;19.30;;;3.17;;
66607;SDS011;53462;39.616;8.824;2023-07-08T14:10:08;17.27;;;3.55;;
66607;SDS011;53462;39.616;8.824;2023-07-08T14:12:36;24.48;;;4.25;;
66607;SDS011;53462;39.616;8.824;2023-07-08T14:15:02;20.20;;;3.88;;
66607;SDS011;53462;39.616;8.824;2023-07-08T14:17:28;18.30;;;3.55;;
66607;SDS011;53462;39.616;8.824;2023-07-08T14:19:54;21.75;;;3.80;;
66607;SDS011;53462;39.616;8.824;2023-07-08T14:22:24;20.83;;;3.83;;
66607;SDS011;53462;39.616;8.824;2023-07-08T14:24:55;16.90;;;3.40;;
66607;SDS011;53462;39.616;8.824;2023-07-08T14:27:23;19.25;;;3.58;;
66607;SDS011;53462;39.616;8.824;2023-07-08T14:29:50;23.45;;;3.60;;
66607;SDS011;53462;39.616;8.824;2023-07-08T14:34:57;22.35;;;3.35;;
66607;SDS011;53462;39.616;8.824;2023-07-08T14:37:49;16.23;;;3.78;;
66607;SDS011;53462;39.616;8.824;2023-07-08T14:40:23;23.42;;;3.10;;
66607;SDS011;53462;39.616;8.824;2023-07-08T14:43:27;13.45;;;3.35;;
66607;SDS011;53462;39.616;8.824;2023-07-08T14:45:55;18.58;;;3.30;;
66607;SDS011;53462;39.616;8.824;2023-07-08T14:48:23;18.98;;;3.78;;
66607;SDS011;53462;39.616;8.824;2023-07-08T14:50:50;20.20;;;3.58;;
66607;SDS011;53462;39.616;8.824;2023-07-08T14:53:16;19.38;;;3.33;;
66607;SDS011;53462;39.616;8.824;2023-07-08T14:55:47;20.35;;;3.47;;
66607;SDS011;53462;39.616;8.824;2023-07-08T14:58:22;17.85;;;3.40;;
66607;SDS011;53462;39.616;8.824;2023-07-08T15:00:54;21.50;;;3.78;;
66607;SDS011;53462;39.616;8.824;2023-07-08T15:03:22;17.73;;;3.47;;
66607;SDS011;53462;39.616;8.824;2023-07-08T15:05:49;18.70;;;4.40;;
66607;SDS011;53462;39.616;8.824;2023-07-08T15:08:15;14.45;;;3.03;;
66607;SDS011;53462;39.616;8.824;2023-07-08T15:10:51;20.35;;;3.60;;
66607;SDS011;53462;39.616;8.824;2023-07-08T15:13:18;16.58;;;3.13;;
66607;SDS011;53462;39.616;8.824;2023-07-08T15:15:46;24.45;;;3.95;;
66607;SDS011;53462;39.616;8.824;2023-07-08T15:18:14;17.20;;;3.20;;
66607;SDS011;53462;39.616;8.824;2023-07-08T15:20:41;19.55;;;3.17;;
66607;SDS011;53462;39.616;8.824;2023-07-08T15:23:09;17.10;;;3.20;;
66607;SDS011;53462;39.616;8.824;2023-07-08T15:25:35;20.45;;;3.65;;
66607;SDS011;53462;39.616;8.824;2023-07-08T15:28:03;20.15;;;3.78;;
66607;SDS011;53462;39.616;8.824;2023-07-08T15:30:29;20.15;;;3.70;;
66607;SDS011;53462;39.616;8.824;2023-07-08T15:32:56;16.52;;;2.85;;
66607;SDS011;53462;39.616;8.824;2023-07-08T15:37:51;20.95;;;3.40;;
66607;SDS011;53462;39.616;8.824;2023-07-08T15:40:19;15.45;;;3.17;;
66607;SDS011;53462;39.616;8.824;2023-07-08T15:42:51;19.42;;;3.53;;
66607;SDS011;53462;39.616;8.824;2023-07-08T15:45:22;19.40;;;3.25;;
66607;SDS011;53462;39.616;8.824;2023-07-08T15:47:50;14.60;;;3.50;;
66607;SDS011;53462;39.616;8.824;2023-07-08T15:50:17;22.52;;;3.63;;
66607;SDS011;53462;39.616;8.824;2023-07-08T15:52:45;21.52;;;3.80;;
66607;SDS011;53462;39.616;8.824;2023-07-08T15:55:12;19.00;;;3.30;;
66607;SDS011;53462;39.616;8.824;2023-07-08T15:57:46;20.13;;;3.50;;
66607;SDS011;53462;39.616;8.824;2023-07-08T16:00:17;17.85;;;3.10;;
66607;SDS011;53462;39.616;8.824;2023-07-08T16:02:50;18.25;;;3.22;;
66607;SDS011;53462;39.616;8.824;2023-07-08T16:05:18;20.58;;;3.25;;
66607;SDS011;53462;39.616;8.824;2023-07-08T16:07:46;19.50;;;3.67;;
66607;SDS011;53462;39.616;8.824;2023-07-08T16:10:13;23.42;;;4.05;;